sensor_id;sensor_type;location;lat;lon;timestamp;P1;durP1;ratioP1;P2;durP2;ratioP2
16667;SDS011;8447;52.630;4.734;2023-11-21T00:00:12;7.27;;;2.47;;
16667;SDS011;8447;52.630;4.734;2023-11-21T00:02:39;7.30;;;2.53;;
16667;SDS011;8447;52.630;4.734;2023-11-21T00:05:06;13.03;;;2.40;;
16667;SDS011;8447;52.630;4.734;2023-11-21T00:07:33;6.63;;;2.70;;
16667;SDS011;8447;52.630;4.734;2023-11-21T00:09:59;8.13;;;2.60;;
16667;SDS011;8447;52.630;4.734;2023-11-21T00:12:26;5.43;;;2.50;;
16667;SDS011;8447;52.630;4.734;2023-11-21T00:14:54;4.43;;;2.30;;
16667;SDS011;8447;52.630;4.734;2023-11-21T00:17:20;7.53;;;2.90;;
16667;SDS011;8447;52.630;4.734;2023-11-21T00:19:46;5.27;;;2.67;;
16667;SDS011;8447;52.630;4.734;2023-11-21T00:22:13;8.90;;;2.70;;
16667;SDS011;8447;52.630;4.734;2023-11-21T00:24:40;9.80;;;2.23;;
16667;SDS011;8447;52.630;4.734;2023-11-21T00:27:06;6.23;;;2.30;;
16667;SDS011;8447;52.630;4.734;2023-11-21T00:29:32;6.17;;;2.30;;
16667;SDS011;8447;52.630;4.734;2023-11-21T00:32:00;3.70;;;2.47;;
16667;SDS011;8447;52.630;4.734;2023-11-21T00:34:27;4.00;;;1.90;;
16667;SDS011;8447;52.630;4.734;2023-11-21T00:36:53;4.20;;;1.90;;
16667;SDS011;8447;52.630;4.734;2023-11-21T00:39:19;8.73;;;2.10;;
16667;SDS011;8447;52.630;4.734;2023-11-21T00:41:45;3.97;;;1.67;;
16667;SDS011;8447;52.630;4.734;2023-11-21T00:44:12;2.60;;;1.40;;
16667;SDS011;8447;52.630;4.734;2023-11-21T00:46:38;7.97;;;1.93;;
16667;SDS011;8447;52.630;4.734;2023-11-21T00:49:06;4.27;;;1.90;;
16667;SDS011;8447;52.630;4.734;2023-11-21T00:51:32;3.97;;;1.80;;
16667;SDS011;8447;52.630;4.734;2023-11-21T00:53:59;4.47;;;1.47;;
16667;SDS011;8447;52.630;4.734;2023-11-21T00:56:26;8.73;;;1.83;;
16667;SDS011;8447;52.630;4.734;2023-11-21T00:58:52;5.73;;;1.70;;
16667;SDS011;8447;52.630;4.734;2023-11-21T01:01:19;3.13;;;1.60;;
16667;SDS011;8447;52.630;4.734;2023-11-21T01:03:45;5.77;;;1.43;;
16667;SDS011;8447;52.630;4.734;2023-11-21T01:06:13;3.33;;;1.77;;
16667;SDS011;8447;52.630;4.734;2023-11-21T01:08:40;4.93;;;2.20;;
16667;SDS011;8447;52.630;4.734;2023-11-21T01:11:06;3.20;;;1.73;;
16667;SDS011;8447;52.630;4.734;2023-11-21T01:13:33;3.53;;;1.60;;
16667;SDS011;8447;52.630;4.734;2023-11-21T01:16:00;3.90;;;1.83;;
16667;SDS011;8447;52.630;4.734;2023-11-21T01:18:26;5.37;;;1.60;;
16667;SDS011;8447;52.630;4.734;2023-11-21T01:20:54;7.43;;;1.80;;
16667;SDS011;8447;52.630;4.734;2023-11-21T01:23:22;7.63;;;2.50;;
16667;SDS011;8447;52.630;4.734;2023-11-21T01:25:48;3.97;;;1.90;;
16667;SDS011;8447;52.630;4.734;2023-11-21T01:28:16;3.07;;;1.50;;
16667;SDS011;8447;52.630;4.734;2023-11-21T01:30:43;4.23;;;1.33;;
16667;SDS011;8447;52.630;4.734;2023-11-21T01:33:09;5.43;;;1.80;;
16667;SDS011;8447;52.630;4.734;2023-11-21T01:35:36;3.50;;;1.50;;
16667;SDS011;8447;52.630;4.734;2023-11-21T01:38:02;3.47;;;1.80;;
16667;SDS011;8447;52.630;4.734;2023-11-21T01:40:30;2.87;;;1.40;;
16667;SDS011;8447;52.630;4.734;2023-11-21T01:42:56;4.47;;;2.10;;
16667;SDS011;8447;52.630;4.734;2023-11-21T01:45:23;4.90;;;1.40;;
16667;SDS011;8447;52.630;4.734;2023-11-21T01:47:50;5.27;;;1.30;;
16667;SDS011;8447;52.630;4.734;2023-11-21T01:50:16;3.50;;;1.80;;
16667;SDS011;8447;52.630;4.734;2023-11-21T01:52:43;3.23;;;1.83;;
16667;SDS011;8447;52.630;4.734;2023-11-21T01:55:10;3.47;;;1.47;;
16667;SDS011;8447;52.630;4.734;2023-11-21T01:57:38;3.13;;;1.30;;
16667;SDS011;8447;52.630;4.734;2023-11-21T02:00:05;5.53;;;1.53;;
16667;SDS011;8447;52.630;4.734;2023-11-21T02:02:40;4.07;;;1.80;;
16667;SDS011;8447;52.630;4.734;2023-11-21T02:05:07;3.03;;;1.40;;
16667;SDS011;8447;52.630;4.734;2023-11-21T02:07:34;2.90;;;1.40;;
16667;SDS011;8447;52.630;4.734;2023-11-21T02:10:01;1.80;;;1.30;;
16667;SDS011;8447;52.630;4.734;2023-11-21T02:12:27;1.50;;;1.30;;
16667;SDS011;8447;52.630;4.734;2023-11-21T02:14:55;4.70;;;1.50;;
16667;SDS011;8447;52.630;4.734;2023-11-21T02:17:21;4.40;;;1.13;;
16667;SDS011;8447;52.630;4.734;2023-11-21T02:19:48;1.17;;;1.03;;
16667;SDS011;8447;52.630;4.734;2023-11-21T02:22:16;2.90;;;1.30;;
16667;SDS011;8447;52.630;4.734;2023-11-21T02:24:45;5.03;;;1.40;;
16667;SDS011;8447;52.630;4.734;2023-11-21T02:27:12;4.13;;;1.03;;
16667;SDS011;8447;52.630;4.734;2023-11-21T02:29:42;1.00;;;0.90;;
16667;SDS011;8447;52.630;4.734;2023-11-21T02:32:08;3.90;;;1.10;;
16667;SDS011;8447;52.630;4.734;2023-11-21T02:34:35;1.67;;;0.70;;
16667;SDS011;8447;52.630;4.734;2023-11-21T02:37:03;3.30;;;0.97;;
16667;SDS011;8447;52.630;4.734;2023-11-21T02:39:30;4.13;;;1.00;;
16667;SDS011;8447;52.630;4.734;2023-11-21T02:41:58;1.27;;;0.87;;
16667;SDS011;8447;52.630;4.734;2023-11-21T02:44:24;2.27;;;0.80;;
16667;SDS011;8447;52.630;4.734;2023-11-21T02:46:51;2.93;;;1.17;;
16667;SDS011;8447;52.630;4.734;2023-11-21T02:49:17;1.77;;;0.70;;
16667;SDS011;8447;52.630;4.734;2023-11-21T02:51:44;3.90;;;1.00;;
16667;SDS011;8447;52.630;4.734;2023-11-21T02:54:10;1.63;;;1.03;;
16667;SDS011;8447;52.630;4.734;2023-11-21T02:56:37;1.10;;;0.60;;
16667;SDS011;8447;52.630;4.734;2023-11-21T02:59:06;2.40;;;0.77;;
16667;SDS011;8447;52.630;4.734;2023-11-21T03:01:32;3.13;;;0.70;;
16667;SDS011;8447;52.630;4.734;2023-11-21T03:03:59;3.07;;;0.77;;
16667;SDS011;8447;52.630;4.734;2023-11-21T03:06:25;1.00;;;0.90;;
16667;SDS011;8447;52.630;4.734;2023-11-21T03:08:51;0.80;;;0.67;;
16667;SDS011;8447;52.630;4.734;2023-11-21T03:11:18;3.03;;;0.70;;
16667;SDS011;8447;52.630;4.734;2023-11-21T03:13:44;2.43;;;0.90;;
16667;SDS011;8447;52.630;4.734;2023-11-21T03:16:12;1.63;;;0.70;;
16667;SDS011;8447;52.630;4.734;2023-11-21T03:18:38;1.27;;;0.73;;
16667;SDS011;8447;52.630;4.734;2023-11-21T03:21:05;1.00;;;0.70;;
16667;SDS011;8447;52.630;4.734;2023-11-21T03:23:33;1.83;;;0.80;;
16667;SDS011;8447;52.630;4.734;2023-11-21T03:26:00;0.70;;;0.70;;
16667;SDS011;8447;52.630;4.734;2023-11-21T03:28:26;2.77;;;0.87;;
16667;SDS011;8447;52.630;4.734;2023-11-21T03:30:53;1.83;;;0.80;;
16667;SDS011;8447;52.630;4.734;2023-11-21T03:33:20;2.20;;;0.90;;
16667;SDS011;8447;52.630;4.734;2023-11-21T03:35:47;2.67;;;0.97;;
16667;SDS011;8447;52.630;4.734;2023-11-21T03:38:14;0.90;;;0.60;;
16667;SDS011;8447;52.630;4.734;2023-11-21T03:40:41;2.80;;;0.60;;
16667;SDS011;8447;52.630;4.734;2023-11-21T03:43:07;1.67;;;0.60;;
16667;SDS011;8447;52.630;4.734;2023-11-21T03:45:33;0.83;;;0.77;;
16667;SDS011;8447;52.630;4.734;2023-11-21T03:48:00;0.80;;;0.70;;
16667;SDS011;8447;52.630;4.734;2023-11-21T03:50:28;0.93;;;0.80;;
16667;SDS011;8447;52.630;4.734;2023-11-21T03:52:54;0.73;;;0.73;;
16667;SDS011;8447;52.630;4.734;2023-11-21T03:55:21;1.27;;;0.70;;
16667;SDS011;8447;52.630;4.734;2023-11-21T03:57:48;4.53;;;1.10;;
16667;SDS011;8447;52.630;4.734;2023-11-21T04:00:15;0.80;;;0.60;;
16667;SDS011;8447;52.630;4.734;2023-11-21T04:02:42;1.40;;;0.70;;
16667;SDS011;8447;52.630;4.734;2023-11-21T04:05:08;0.80;;;0.60;;
16667;SDS011;8447;52.630;4.734;2023-11-21T04:07:36;0.70;;;0.67;;
16667;SDS011;8447;52.630;4.734;2023-11-21T04:10:03;1.90;;;1.13;;
16667;SDS011;8447;52.630;4.734;2023-11-21T04:12:32;1.40;;;0.90;;
16667;SDS011;8447;52.630;4.734;2023-11-21T04:14:58;5.00;;;1.20;;
16667;SDS011;8447;52.630;4.734;2023-11-21T04:17:25;2.67;;;0.80;;
16667;SDS011;8447;52.630;4.734;2023-11-21T04:19:51;2.30;;;1.00;;
16667;SDS011;8447;52.630;4.734;2023-11-21T04:22:17;4.03;;;0.87;;
16667;SDS011;8447;52.630;4.734;2023-11-21T04:24:45;6.33;;;1.10;;
16667;SDS011;8447;52.630;4.734;2023-11-21T04:27:12;0.63;;;0.63;;
16667;SDS011;8447;52.630;4.734;2023-11-21T04:29:39;3.00;;;1.17;;
16667;SDS011;8447;52.630;4.734;2023-11-21T04:32:06;1.73;;;0.87;;
16667;SDS011;8447;52.630;4.734;2023-11-21T04:34:33;1.23;;;0.90;;
16667;SDS011;8447;52.630;4.734;2023-11-21T04:36:59;6.83;;;1.27;;
16667;SDS011;8447;52.630;4.734;2023-11-21T04:39:26;5.03;;;1.03;;
16667;SDS011;8447;52.630;4.734;2023-11-21T04:41:53;2.23;;;1.07;;
16667;SDS011;8447;52.630;4.734;2023-11-21T04:44:20;2.90;;;1.13;;
16667;SDS011;8447;52.630;4.734;2023-11-21T04:46:46;2.70;;;1.40;;
16667;SDS011;8447;52.630;4.734;2023-11-21T04:49:13;3.47;;;1.20;;
16667;SDS011;8447;52.630;4.734;2023-11-21T04:51:40;1.17;;;0.80;;
16667;SDS011;8447;52.630;4.734;2023-11-21T04:54:06;2.30;;;1.43;;
16667;SDS011;8447;52.630;4.734;2023-11-21T04:56:32;4.20;;;1.10;;
16667;SDS011;8447;52.630;4.734;2023-11-21T04:59:00;4.40;;;1.30;;
16667;SDS011;8447;52.630;4.734;2023-11-21T05:01:26;4.63;;;1.30;;
16667;SDS011;8447;52.630;4.734;2023-11-21T05:03:53;3.03;;;1.37;;
16667;SDS011;8447;52.630;4.734;2023-11-21T05:06:19;4.87;;;1.50;;
16667;SDS011;8447;52.630;4.734;2023-11-21T05:08:46;8.60;;;1.83;;
16667;SDS011;8447;52.630;4.734;2023-11-21T05:11:12;4.33;;;1.63;;
16667;SDS011;8447;52.630;4.734;2023-11-21T05:13:48;2.83;;;1.30;;
16667;SDS011;8447;52.630;4.734;2023-11-21T05:16:16;4.20;;;1.43;;
16667;SDS011;8447;52.630;4.734;2023-11-21T05:18:43;7.73;;;1.43;;
16667;SDS011;8447;52.630;4.734;2023-11-21T05:21:09;5.67;;;1.43;;
16667;SDS011;8447;52.630;4.734;2023-11-21T05:23:36;3.93;;;1.60;;
16667;SDS011;8447;52.630;4.734;2023-11-21T05:26:02;4.13;;;1.10;;
16667;SDS011;8447;52.630;4.734;2023-11-21T05:28:29;5.63;;;1.40;;
16667;SDS011;8447;52.630;4.734;2023-11-21T05:30:55;4.67;;;1.40;;
16667;SDS011;8447;52.630;4.734;2023-11-21T05:33:23;2.87;;;1.23;;
16667;SDS011;8447;52.630;4.734;2023-11-21T05:35:50;5.23;;;1.33;;
16667;SDS011;8447;52.630;4.734;2023-11-21T05:38:16;6.53;;;1.50;;
16667;SDS011;8447;52.630;4.734;2023-11-21T05:40:43;1.90;;;1.10;;
16667;SDS011;8447;52.630;4.734;2023-11-21T05:43:09;3.23;;;0.97;;
16667;SDS011;8447;52.630;4.734;2023-11-21T05:45:35;5.73;;;1.83;;
16667;SDS011;8447;52.630;4.734;2023-11-21T05:48:02;3.90;;;1.33;;
16667;SDS011;8447;52.630;4.734;2023-11-21T05:50:32;4.37;;;1.30;;
16667;SDS011;8447;52.630;4.734;2023-11-21T05:52:58;5.10;;;0.80;;
16667;SDS011;8447;52.630;4.734;2023-11-21T05:55:25;4.27;;;1.07;;
16667;SDS011;8447;52.630;4.734;2023-11-21T05:57:52;1.63;;;0.80;;
16667;SDS011;8447;52.630;4.734;2023-11-21T06:00:18;1.57;;;0.90;;
16667;SDS011;8447;52.630;4.734;2023-11-21T06:02:46;0.87;;;0.70;;
16667;SDS011;8447;52.630;4.734;2023-11-21T06:05:15;0.60;;;0.60;;
16667;SDS011;8447;52.630;4.734;2023-11-21T06:07:44;2.20;;;1.20;;
16667;SDS011;8447;52.630;4.734;2023-11-21T06:10:10;2.17;;;1.47;;
16667;SDS011;8447;52.630;4.734;2023-11-21T06:12:38;3.77;;;1.10;;
16667;SDS011;8447;52.630;4.734;2023-11-21T06:15:05;1.97;;;0.97;;
16667;SDS011;8447;52.630;4.734;2023-11-21T06:17:33;4.73;;;1.27;;
16667;SDS011;8447;52.630;4.734;2023-11-21T06:20:01;1.93;;;1.03;;
16667;SDS011;8447;52.630;4.734;2023-11-21T06:22:29;4.10;;;1.50;;
16667;SDS011;8447;52.630;4.734;2023-11-21T06:24:57;5.57;;;1.43;;
16667;SDS011;8447;52.630;4.734;2023-11-21T06:27:23;2.97;;;1.53;;
16667;SDS011;8447;52.630;4.734;2023-11-21T06:29:50;5.50;;;1.67;;
16667;SDS011;8447;52.630;4.734;2023-11-21T06:32:16;3.93;;;1.03;;
16667;SDS011;8447;52.630;4.734;2023-11-21T06:34:42;4.57;;;1.90;;
16667;SDS011;8447;52.630;4.734;2023-11-21T06:37:09;4.07;;;2.53;;
16667;SDS011;8447;52.630;4.734;2023-11-21T06:39:36;7.20;;;1.93;;
16667;SDS011;8447;52.630;4.734;2023-11-21T06:42:04;9.23;;;2.53;;
16667;SDS011;8447;52.630;4.734;2023-11-21T06:44:31;7.00;;;1.80;;
16667;SDS011;8447;52.630;4.734;2023-11-21T06:46:58;4.97;;;1.60;;
16667;SDS011;8447;52.630;4.734;2023-11-21T06:49:25;5.20;;;1.87;;
16667;SDS011;8447;52.630;4.734;2023-11-21T06:51:51;6.80;;;2.33;;
16667;SDS011;8447;52.630;4.734;2023-11-21T06:54:19;3.37;;;1.67;;
16667;SDS011;8447;52.630;4.734;2023-11-21T06:56:45;7.50;;;2.00;;
16667;SDS011;8447;52.630;4.734;2023-11-21T06:59:14;4.90;;;2.17;;
16667;SDS011;8447;52.630;4.734;2023-11-21T07:01:40;5.63;;;1.77;;
16667;SDS011;8447;52.630;4.734;2023-11-21T07:04:07;4.77;;;2.20;;
16667;SDS011;8447;52.630;4.734;2023-11-21T07:06:34;5.33;;;2.37;;
16667;SDS011;8447;52.630;4.734;2023-11-21T07:09:01;3.20;;;1.40;;
16667;SDS011;8447;52.630;4.734;2023-11-21T07:11:28;4.17;;;1.30;;
16667;SDS011;8447;52.630;4.734;2023-11-21T07:13:54;2.23;;;1.20;;
16667;SDS011;8447;52.630;4.734;2023-11-21T07:16:22;3.13;;;1.47;;
16667;SDS011;8447;52.630;4.734;2023-11-21T07:18:49;1.63;;;1.53;;
16667;SDS011;8447;52.630;4.734;2023-11-21T07:21:15;2.63;;;1.50;;
16667;SDS011;8447;52.630;4.734;2023-11-21T07:23:41;4.40;;;1.30;;
16667;SDS011;8447;52.630;4.734;2023-11-21T07:26:08;1.67;;;1.03;;
16667;SDS011;8447;52.630;4.734;2023-11-21T07:28:35;2.63;;;1.47;;
16667;SDS011;8447;52.630;4.734;2023-11-21T07:31:02;2.83;;;1.20;;
16667;SDS011;8447;52.630;4.734;2023-11-21T07:33:30;2.53;;;1.53;;
16667;SDS011;8447;52.630;4.734;2023-11-21T07:35:56;3.33;;;1.73;;
16667;SDS011;8447;52.630;4.734;2023-11-21T07:38:22;4.07;;;2.00;;
16667;SDS011;8447;52.630;4.734;2023-11-21T07:40:49;3.53;;;1.70;;
16667;SDS011;8447;52.630;4.734;2023-11-21T07:43:15;2.17;;;1.90;;
16667;SDS011;8447;52.630;4.734;2023-11-21T07:45:41;3.17;;;1.90;;
16667;SDS011;8447;52.630;4.734;2023-11-21T07:48:08;4.17;;;2.13;;
16667;SDS011;8447;52.630;4.734;2023-11-21T07:50:35;3.60;;;1.83;;
16667;SDS011;8447;52.630;4.734;2023-11-21T07:53:02;3.83;;;1.97;;
16667;SDS011;8447;52.630;4.734;2023-11-21T07:55:30;2.07;;;1.77;;
16667;SDS011;8447;52.630;4.734;2023-11-21T07:57:57;3.50;;;1.90;;
16667;SDS011;8447;52.630;4.734;2023-11-21T08:00:24;5.10;;;1.70;;
16667;SDS011;8447;52.630;4.734;2023-11-21T08:02:55;2.53;;;1.80;;
16667;SDS011;8447;52.630;4.734;2023-11-21T08:05:21;2.23;;;1.40;;
16667;SDS011;8447;52.630;4.734;2023-11-21T08:07:49;2.70;;;1.77;;
16667;SDS011;8447;52.630;4.734;2023-11-21T08:10:15;2.97;;;1.80;;
16667;SDS011;8447;52.630;4.734;2023-11-21T08:12:42;4.40;;;2.33;;
16667;SDS011;8447;52.630;4.734;2023-11-21T08:15:09;3.80;;;2.23;;
16667;SDS011;8447;52.630;4.734;2023-11-21T08:17:35;3.13;;;1.93;;
16667;SDS011;8447;52.630;4.734;2023-11-21T08:20:02;4.90;;;2.07;;
16667;SDS011;8447;52.630;4.734;2023-11-21T08:22:28;3.53;;;2.17;;
16667;SDS011;8447;52.630;4.734;2023-11-21T08:24:56;6.47;;;2.70;;
16667;SDS011;8447;52.630;4.734;2023-11-21T08:27:22;3.30;;;2.00;;
16667;SDS011;8447;52.630;4.734;2023-11-21T08:29:48;3.33;;;1.67;;
16667;SDS011;8447;52.630;4.734;2023-11-21T08:32:15;4.77;;;2.13;;
16667;SDS011;8447;52.630;4.734;2023-11-21T08:34:42;4.90;;;2.40;;
16667;SDS011;8447;52.630;4.734;2023-11-21T08:37:09;4.30;;;1.87;;
16667;SDS011;8447;52.630;4.734;2023-11-21T08:39:36;3.53;;;2.10;;
16667;SDS011;8447;52.630;4.734;2023-11-21T08:42:04;2.40;;;2.00;;
16667;SDS011;8447;52.630;4.734;2023-11-21T08:44:31;6.87;;;2.30;;
16667;SDS011;8447;52.630;4.734;2023-11-21T08:46:58;4.47;;;2.20;;
16667;SDS011;8447;52.630;4.734;2023-11-21T08:49:25;3.57;;;2.13;;
16667;SDS011;8447;52.630;4.734;2023-11-21T08:51:52;5.00;;;2.00;;
16667;SDS011;8447;52.630;4.734;2023-11-21T08:54:20;3.37;;;2.40;;
16667;SDS011;8447;52.630;4.734;2023-11-21T08:56:46;4.23;;;1.90;;
16667;SDS011;8447;52.630;4.734;2023-11-21T08:59:14;4.37;;;1.97;;
16667;SDS011;8447;52.630;4.734;2023-11-21T09:01:41;4.27;;;2.20;;
16667;SDS011;8447;52.630;4.734;2023-11-21T09:04:07;2.83;;;1.70;;
16667;SDS011;8447;52.630;4.734;2023-11-21T09:06:34;2.47;;;1.80;;
16667;SDS011;8447;52.630;4.734;2023-11-21T09:09:00;3.67;;;2.17;;
16667;SDS011;8447;52.630;4.734;2023-11-21T09:11:27;2.57;;;1.90;;
16667;SDS011;8447;52.630;4.734;2023-11-21T09:13:58;3.23;;;2.03;;
16667;SDS011;8447;52.630;4.734;2023-11-21T09:16:27;4.27;;;2.27;;
16667;SDS011;8447;52.630;4.734;2023-11-21T09:18:53;2.90;;;1.67;;
16667;SDS011;8447;52.630;4.734;2023-11-21T09:21:20;3.13;;;1.77;;
16667;SDS011;8447;52.630;4.734;2023-11-21T09:23:46;3.23;;;2.20;;
16667;SDS011;8447;52.630;4.734;2023-11-21T09:26:13;3.40;;;2.20;;
16667;SDS011;8447;52.630;4.734;2023-11-21T09:28:41;2.60;;;1.83;;
16667;SDS011;8447;52.630;4.734;2023-11-21T09:31:11;3.37;;;2.13;;
16667;SDS011;8447;52.630;4.734;2023-11-21T09:33:39;4.40;;;2.33;;
16667;SDS011;8447;52.630;4.734;2023-11-21T09:36:06;4.70;;;2.57;;
16667;SDS011;8447;52.630;4.734;2023-11-21T09:38:37;4.37;;;2.37;;
16667;SDS011;8447;52.630;4.734;2023-11-21T09:41:04;5.83;;;2.47;;
16667;SDS011;8447;52.630;4.734;2023-11-21T09:43:33;3.87;;;2.50;;
16667;SDS011;8447;52.630;4.734;2023-11-21T09:45:59;4.53;;;3.13;;
16667;SDS011;8447;52.630;4.734;2023-11-21T09:48:27;3.27;;;2.30;;
16667;SDS011;8447;52.630;4.734;2023-11-21T09:50:56;5.47;;;2.47;;
16667;SDS011;8447;52.630;4.734;2023-11-21T09:53:23;5.17;;;2.50;;
16667;SDS011;8447;52.630;4.734;2023-11-21T09:55:53;4.10;;;2.30;;
16667;SDS011;8447;52.630;4.734;2023-11-21T09:58:19;4.93;;;2.87;;
16667;SDS011;8447;52.630;4.734;2023-11-21T10:00:47;4.17;;;2.87;;
16667;SDS011;8447;52.630;4.734;2023-11-21T10:03:14;4.07;;;2.43;;
16667;SDS011;8447;52.630;4.734;2023-11-21T10:05:42;5.10;;;3.10;;
16667;SDS011;8447;52.630;4.734;2023-11-21T10:08:11;5.43;;;3.53;;
16667;SDS011;8447;52.630;4.734;2023-11-21T10:10:38;3.90;;;2.90;;
16667;SDS011;8447;52.630;4.734;2023-11-21T10:13:06;4.57;;;3.50;;
16667;SDS011;8447;52.630;4.734;2023-11-21T10:15:35;4.10;;;2.93;;
16667;SDS011;8447;52.630;4.734;2023-11-21T10:18:02;5.77;;;3.00;;
16667;SDS011;8447;52.630;4.734;2023-11-21T10:20:29;4.13;;;2.43;;
16667;SDS011;8447;52.630;4.734;2023-11-21T10:22:56;5.17;;;2.97;;
16667;SDS011;8447;52.630;4.734;2023-11-21T10:25:24;5.77;;;3.40;;
16667;SDS011;8447;52.630;4.734;2023-11-21T10:27:56;4.57;;;2.60;;
16667;SDS011;8447;52.630;4.734;2023-11-21T10:30:24;7.30;;;2.60;;
16667;SDS011;8447;52.630;4.734;2023-11-21T10:32:56;4.13;;;2.93;;
16667;SDS011;8447;52.630;4.734;2023-11-21T10:35:24;3.87;;;2.70;;
16667;SDS011;8447;52.630;4.734;2023-11-21T10:37:56;5.50;;;3.40;;
16667;SDS011;8447;52.630;4.734;2023-11-21T10:40:27;5.30;;;2.83;;
16667;SDS011;8447;52.630;4.734;2023-11-21T10:42:54;6.50;;;2.70;;
16667;SDS011;8447;52.630;4.734;2023-11-21T10:45:23;6.13;;;3.13;;
16667;SDS011;8447;52.630;4.734;2023-11-21T10:47:49;3.67;;;2.90;;
16667;SDS011;8447;52.630;4.734;2023-11-21T10:50:18;6.90;;;3.10;;
16667;SDS011;8447;52.630;4.734;2023-11-21T10:52:45;5.77;;;2.70;;
16667;SDS011;8447;52.630;4.734;2023-11-21T10:55:19;5.00;;;2.47;;
16667;SDS011;8447;52.630;4.734;2023-11-21T10:57:48;5.60;;;2.70;;
16667;SDS011;8447;52.630;4.734;2023-11-21T11:00:15;4.67;;;2.73;;
16667;SDS011;8447;52.630;4.734;2023-11-21T11:02:44;4.10;;;2.97;;
16667;SDS011;8447;52.630;4.734;2023-11-21T11:05:12;4.50;;;3.00;;
16667;SDS011;8447;52.630;4.734;2023-11-21T11:07:39;4.93;;;2.77;;
16667;SDS011;8447;52.630;4.734;2023-11-21T11:10:07;5.90;;;2.57;;
16667;SDS011;8447;52.630;4.734;2023-11-21T11:12:39;6.90;;;2.63;;
16667;SDS011;8447;52.630;4.734;2023-11-21T11:15:07;6.87;;;3.17;;
16667;SDS011;8447;52.630;4.734;2023-11-21T11:17:34;6.63;;;2.63;;
16667;SDS011;8447;52.630;4.734;2023-11-21T11:20:01;3.80;;;2.40;;
16667;SDS011;8447;52.630;4.734;2023-11-21T11:22:34;4.47;;;2.53;;
16667;SDS011;8447;52.630;4.734;2023-11-21T11:27:46;4.83;;;3.43;;
16667;SDS011;8447;52.630;4.734;2023-11-21T11:30:19;3.30;;;1.97;;
16667;SDS011;8447;52.630;4.734;2023-11-21T11:32:52;4.70;;;2.50;;
16667;SDS011;8447;52.630;4.734;2023-11-21T11:35:24;5.00;;;2.30;;
16667;SDS011;8447;52.630;4.734;2023-11-21T11:37:52;3.73;;;2.40;;
16667;SDS011;8447;52.630;4.734;2023-11-21T11:40:19;5.97;;;2.33;;
16667;SDS011;8447;52.630;4.734;2023-11-21T11:42:55;3.70;;;2.30;;
16667;SDS011;8447;52.630;4.734;2023-11-21T11:45:23;4.63;;;2.53;;
16667;SDS011;8447;52.630;4.734;2023-11-21T11:47:56;4.30;;;2.43;;
16667;SDS011;8447;52.630;4.734;2023-11-21T11:50:22;4.13;;;2.27;;
16667;SDS011;8447;52.630;4.734;2023-11-21T11:52:50;4.50;;;2.60;;
16667;SDS011;8447;52.630;4.734;2023-11-21T11:55:18;3.83;;;2.80;;
16667;SDS011;8447;52.630;4.734;2023-11-21T11:57:46;5.20;;;2.43;;
16667;SDS011;8447;52.630;4.734;2023-11-21T12:00:13;5.13;;;2.50;;
16667;SDS011;8447;52.630;4.734;2023-11-21T12:02:46;2.63;;;2.37;;
16667;SDS011;8447;52.630;4.734;2023-11-21T12:05:13;3.20;;;2.30;;
16667;SDS011;8447;52.630;4.734;2023-11-21T12:07:44;5.13;;;2.33;;
16667;SDS011;8447;52.630;4.734;2023-11-21T12:10:11;3.30;;;2.20;;
16667;SDS011;8447;52.630;4.734;2023-11-21T12:12:37;2.73;;;2.00;;
16667;SDS011;8447;52.630;4.734;2023-11-21T12:15:04;3.20;;;2.03;;
16667;SDS011;8447;52.630;4.734;2023-11-21T12:17:31;3.43;;;2.20;;
16667;SDS011;8447;52.630;4.734;2023-11-21T12:20:02;3.17;;;2.40;;
16667;SDS011;8447;52.630;4.734;2023-11-21T12:22:29;3.83;;;2.20;;
16667;SDS011;8447;52.630;4.734;2023-11-21T12:24:56;3.40;;;2.17;;
16667;SDS011;8447;52.630;4.734;2023-11-21T12:27:22;2.50;;;2.20;;
16667;SDS011;8447;52.630;4.734;2023-11-21T12:29:49;3.20;;;2.20;;
16667;SDS011;8447;52.630;4.734;2023-11-21T12:32:15;2.87;;;1.97;;
16667;SDS011;8447;52.630;4.734;2023-11-21T12:34:43;2.77;;;2.17;;
16667;SDS011;8447;52.630;4.734;2023-11-21T12:37:11;3.23;;;2.37;;
16667;SDS011;8447;52.630;4.734;2023-11-21T12:39:37;3.00;;;1.80;;
16667;SDS011;8447;52.630;4.734;2023-11-21T12:42:04;4.07;;;2.17;;
16667;SDS011;8447;52.630;4.734;2023-11-21T12:44:31;2.40;;;1.70;;
16667;SDS011;8447;52.630;4.734;2023-11-21T12:46:58;3.93;;;2.30;;
16667;SDS011;8447;52.630;4.734;2023-11-21T12:49:26;2.93;;;2.37;;
16667;SDS011;8447;52.630;4.734;2023-11-21T12:51:53;3.27;;;2.20;;
16667;SDS011;8447;52.630;4.734;2023-11-21T12:54:21;3.37;;;2.30;;
16667;SDS011;8447;52.630;4.734;2023-11-21T12:56:47;3.03;;;2.00;;
16667;SDS011;8447;52.630;4.734;2023-11-21T12:59:15;2.57;;;2.00;;
16667;SDS011;8447;52.630;4.734;2023-11-21T13:01:43;2.83;;;2.10;;
16667;SDS011;8447;52.630;4.734;2023-11-21T13:04:10;3.57;;;2.33;;
16667;SDS011;8447;52.630;4.734;2023-11-21T13:06:36;3.20;;;1.93;;
16667;SDS011;8447;52.630;4.734;2023-11-21T13:09:06;3.03;;;2.17;;
16667;SDS011;8447;52.630;4.734;2023-11-21T13:11:36;4.33;;;2.33;;
16667;SDS011;8447;52.630;4.734;2023-11-21T13:14:05;2.50;;;2.00;;
16667;SDS011;8447;52.630;4.734;2023-11-21T13:16:32;4.17;;;2.00;;
16667;SDS011;8447;52.630;4.734;2023-11-21T13:18:58;3.50;;;2.20;;
16667;SDS011;8447;52.630;4.734;2023-11-21T13:21:25;3.30;;;2.23;;
16667;SDS011;8447;52.630;4.734;2023-11-21T13:23:52;2.67;;;2.03;;
16667;SDS011;8447;52.630;4.734;2023-11-21T13:26:19;3.80;;;2.13;;
16667;SDS011;8447;52.630;4.734;2023-11-21T13:28:49;3.40;;;2.57;;
16667;SDS011;8447;52.630;4.734;2023-11-21T13:31:16;4.20;;;2.77;;
16667;SDS011;8447;52.630;4.734;2023-11-21T13:33:52;4.47;;;3.03;;
16667;SDS011;8447;52.630;4.734;2023-11-21T13:36:21;4.67;;;2.77;;
16667;SDS011;8447;52.630;4.734;2023-11-21T13:38:48;3.93;;;3.20;;
16667;SDS011;8447;52.630;4.734;2023-11-21T13:41:14;5.47;;;3.43;;
16667;SDS011;8447;52.630;4.734;2023-11-21T13:43:43;7.10;;;4.10;;
16667;SDS011;8447;52.630;4.734;2023-11-21T13:46:15;4.07;;;3.40;;
16667;SDS011;8447;52.630;4.734;2023-11-21T13:48:46;4.33;;;3.43;;
16667;SDS011;8447;52.630;4.734;2023-11-21T13:51:15;4.67;;;3.30;;
16667;SDS011;8447;52.630;4.734;2023-11-21T13:53:42;5.33;;;3.10;;
16667;SDS011;8447;52.630;4.734;2023-11-21T13:56:09;4.93;;;3.30;;
16667;SDS011;8447;52.630;4.734;2023-11-21T13:58:36;3.70;;;3.30;;
16667;SDS011;8447;52.630;4.734;2023-11-21T14:01:09;4.90;;;3.03;;
16667;SDS011;8447;52.630;4.734;2023-11-21T14:03:57;3.43;;;2.77;;
16667;SDS011;8447;52.630;4.734;2023-11-21T14:06:33;3.10;;;2.70;;
16667;SDS011;8447;52.630;4.734;2023-11-21T14:09:07;4.50;;;3.20;;
16667;SDS011;8447;52.630;4.734;2023-11-21T14:11:33;3.00;;;2.03;;
16667;SDS011;8447;52.630;4.734;2023-11-21T14:14:03;3.73;;;2.60;;
16667;SDS011;8447;52.630;4.734;2023-11-21T14:16:30;2.90;;;2.13;;
16667;SDS011;8447;52.630;4.734;2023-11-21T14:18:58;2.20;;;2.00;;
16667;SDS011;8447;52.630;4.734;2023-11-21T14:21:40;3.57;;;2.50;;
16667;SDS011;8447;52.630;4.734;2023-11-21T14:24:08;2.67;;;2.03;;
16667;SDS011;8447;52.630;4.734;2023-11-21T14:26:35;2.87;;;2.33;;
16667;SDS011;8447;52.630;4.734;2023-11-21T14:29:01;3.27;;;2.30;;
16667;SDS011;8447;52.630;4.734;2023-11-21T14:31:27;3.63;;;2.43;;
16667;SDS011;8447;52.630;4.734;2023-11-21T14:33:56;3.03;;;2.63;;
16667;SDS011;8447;52.630;4.734;2023-11-21T14:36:24;3.10;;;2.67;;
16667;SDS011;8447;52.630;4.734;2023-11-21T14:38:51;4.17;;;2.67;;
16667;SDS011;8447;52.630;4.734;2023-11-21T14:41:17;3.23;;;2.87;;
16667;SDS011;8447;52.630;4.734;2023-11-21T14:43:43;3.23;;;2.53;;
16667;SDS011;8447;52.630;4.734;2023-11-21T14:46:11;3.00;;;2.53;;
16667;SDS011;8447;52.630;4.734;2023-11-21T14:48:41;3.20;;;2.63;;
16667;SDS011;8447;52.630;4.734;2023-11-21T14:51:08;4.20;;;3.20;;
16667;SDS011;8447;52.630;4.734;2023-11-21T14:53:57;3.07;;;2.77;;
16667;SDS011;8447;52.630;4.734;2023-11-21T14:56:26;3.03;;;2.70;;
16667;SDS011;8447;52.630;4.734;2023-11-21T14:58:56;3.63;;;3.10;;
16667;SDS011;8447;52.630;4.734;2023-11-21T15:01:22;5.50;;;2.40;;
16667;SDS011;8447;52.630;4.734;2023-11-21T15:04:00;3.77;;;2.20;;